sensor_id;sensor_type;location;lat;lon;timestamp;pressure;altitude;pressure_sealevel;temperature;humidity
57050;BME280;42935;50.966;16.992;2023-03-23T00:00:08;100900.40;;;7.20;100.00
57050;BME280;42935;50.966;16.992;2023-03-23T00:03:28;100899.68;;;7.28;100.00
57050;BME280;42935;50.966;16.992;2023-03-23T00:06:50;100886.88;;;7.31;100.00
57050;BME280;42935;50.966;16.992;2023-03-23T00:10:12;100891.16;;;7.25;100.00
57050;BME280;42935;50.966;16.992;2023-03-23T00:13:37;100894.65;;;7.35;100.00
57050;BME280;42935;50.966;16.992;2023-03-23T00:17:01;100899.41;;;7.08;100.00
57050;BME280;42935;50.966;16.992;2023-03-23T00:20:25;100905.09;;;7.20;100.00
57050;BME280;42935;50.966;16.992;2023-03-23T00:23:52;100877.71;;;6.93;100.00
57050;BME280;42935;50.966;16.992;2023-03-23T00:27:10;100891.46;;;7.31;100.00
57050;BME280;42935;50.966;16.992;2023-03-23T00:30:34;100873.70;;;7.23;100.00
57050;BME280;42935;50.966;16.992;2023-03-23T00:33:52;100890.38;;;7.38;100.00
57050;BME280;42935;50.966;16.992;2023-03-23T00:37:18;100893.07;;;7.13;100.00
57050;BME280;42935;50.966;16.992;2023-03-23T00:40:38;100896.55;;;7.06;100.00
57050;BME280;42935;50.966;16.992;2023-03-23T00:43:59;100890.41;;;7.24;100.00
57050;BME280;42935;50.966;16.992;2023-03-23T00:47:19;100886.58;;;7.22;100.00
57050;BME280;42935;50.966;16.992;2023-03-23T00:50:49;100891.15;;;7.01;100.00
57050;BME280;42935;50.966;16.992;2023-03-23T00:54:14;100875.30;;;7.09;100.00
57050;BME280;42935;50.966;16.992;2023-03-23T00:57:39;100868.14;;;7.24;100.00
57050;BME280;42935;50.966;16.992;2023-03-23T01:01:07;100862.99;;;7.31;100.00
57050;BME280;42935;50.966;16.992;2023-03-23T01:04:32;100864.72;;;7.48;100.00
57050;BME280;42935;50.966;16.992;2023-03-23T01:08:05;100866.46;;;7.61;100.00
57050;BME280;42935;50.966;16.992;2023-03-23T01:11:27;100864.86;;;7.61;100.00
57050;BME280;42935;50.966;16.992;2023-03-23T01:14:55;100855.87;;;7.42;100.00
57050;BME280;42935;50.966;16.992;2023-03-23T01:18:14;100862.85;;;7.65;100.00
57050;BME280;42935;50.966;16.992;2023-03-23T01:21:42;100864.78;;;7.77;100.00
57050;BME280;42935;50.966;16.992;2023-03-23T01:25:10;100864.41;;;7.77;100.00
57050;BME280;42935;50.966;16.992;2023-03-23T01:28:35;100847.55;;;7.68;100.00
57050;BME280;42935;50.966;16.992;2023-03-23T01:31:55;100862.35;;;7.78;100.00
57050;BME280;42935;50.966;16.992;2023-03-23T01:35:17;100849.02;;;7.75;100.00
57050;BME280;42935;50.966;16.992;2023-03-23T01:38:45;100846.21;;;7.69;100.00
57050;BME280;42935;50.966;16.992;2023-03-23T01:42:09;100828.98;;;7.64;100.00
57050;BME280;42935;50.966;16.992;2023-03-23T01:45:38;100850.42;;;7.78;100.00
57050;BME280;42935;50.966;16.992;2023-03-23T01:49:07;100848.34;;;7.75;100.00
57050;BME280;42935;50.966;16.992;2023-03-23T01:52:32;100832.78;;;7.74;100.00
57050;BME280;42935;50.966;16.992;2023-03-23T01:55:56;100827.43;;;7.66;100.00
57050;BME280;42935;50.966;16.992;2023-03-23T01:59:17;100823.73;;;7.61;100.00
57050;BME280;42935;50.966;16.992;2023-03-23T02:02:48;100824.47;;;7.76;100.00
57050;BME280;42935;50.966;16.992;2023-03-23T02:06:11;100820.36;;;7.82;100.00
57050;BME280;42935;50.966;16.992;2023-03-23T02:09:30;100805.56;;;7.78;100.00
57050;BME280;42935;50.966;16.992;2023-03-23T02:12:51;100796.04;;;7.77;100.00
57050;BME280;42935;50.966;16.992;2023-03-23T02:34:00;100803.37;;;7.93;100.00
57050;BME280;42935;50.966;16.992;2023-03-23T02:40:49;100801.30;;;7.99;100.00
57050;BME280;42935;50.966;16.992;2023-03-23T02:44:12;100804.56;;;8.05;100.00
57050;BME280;42935;50.966;16.992;2023-03-23T02:47:37;100808.73;;;8.06;100.00
57050;BME280;42935;50.966;16.992;2023-03-23T02:50:59;100789.64;;;8.00;100.00
57050;BME280;42935;50.966;16.992;2023-03-23T02:54:18;100809.50;;;8.06;100.00
57050;BME280;42935;50.966;16.992;2023-03-23T02:57:51;100799.73;;;7.91;100.00
57050;BME280;42935;50.966;16.992;2023-03-23T03:15:41;100790.73;;;7.81;100.00
57050;BME280;42935;50.966;16.992;2023-03-23T03:19:14;100793.07;;;7.97;100.00
57050;BME280;42935;50.966;16.992;2023-03-23T03:22:36;100795.41;;;8.00;100.00
57050;BME280;42935;50.966;16.992;2023-03-23T03:25:57;100789.49;;;7.99;100.00
57050;BME280;42935;50.966;16.992;2023-03-23T03:29:22;100770.49;;;7.75;100.00
57050;BME280;42935;50.966;16.992;2023-03-23T03:32:47;100773.00;;;7.88;100.00
57050;BME280;42935;50.966;16.992;2023-03-23T03:36:26;100781.91;;;7.88;100.00
57050;BME280;42935;50.966;16.992;2023-03-23T03:39:45;100774.51;;;7.85;100.00
57050;BME280;42935;50.966;16.992;2023-03-23T03:43:09;100778.20;;;7.86;100.00
57050;BME280;42935;50.966;16.992;2023-03-23T03:46:37;100772.89;;;7.85;100.00
57050;BME280;42935;50.966;16.992;2023-03-23T03:49:57;100769.13;;;7.87;100.00
57050;BME280;42935;50.966;16.992;2023-03-23T03:53:22;100772.77;;;7.83;100.00
57050;BME280;42935;50.966;16.992;2023-03-23T03:56:42;100776.86;;;7.85;100.00
57050;BME280;42935;50.966;16.992;2023-03-23T04:00:08;100765.21;;;7.83;100.00
57050;BME280;42935;50.966;16.992;2023-03-23T04:03:41;100773.67;;;7.95;100.00
57050;BME280;42935;50.966;16.992;2023-03-23T04:06:58;100769.60;;;8.01;100.00
57050;BME280;42935;50.966;16.992;2023-03-23T04:10:24;100773.94;;;8.10;100.00
57050;BME280;42935;50.966;16.992;2023-03-23T04:13:51;100782.79;;;8.25;100.00
57050;BME280;42935;50.966;16.992;2023-03-23T04:17:12;100769.46;;;8.30;100.00
57050;BME280;42935;50.966;16.992;2023-03-23T04:20:36;100778.48;;;8.49;100.00
57050;BME280;42935;50.966;16.992;2023-03-23T04:23:56;100773.94;;;8.64;100.00
57050;BME280;42935;50.966;16.992;2023-03-23T04:27:29;100765.41;;;8.73;100.00
57050;BME280;42935;50.966;16.992;2023-03-23T04:30:52;100771.84;;;8.82;100.00
57050;BME280;42935;50.966;16.992;2023-03-23T04:34:11;100773.25;;;8.85;100.00
57050;BME280;42935;50.966;16.992;2023-03-23T04:37:33;100774.77;;;8.87;100.00
57050;BME280;42935;50.966;16.992;2023-03-23T04:40:55;100769.17;;;8.88;100.00
57050;BME280;42935;50.966;16.992;2023-03-23T04:44:18;100755.63;;;8.87;100.00
57050;BME280;42935;50.966;16.992;2023-03-23T04:47:37;100757.72;;;9.08;100.00
57050;BME280;42935;50.966;16.992;2023-03-23T04:51:04;100749.12;;;8.98;100.00
57050;BME280;42935;50.966;16.992;2023-03-23T04:54:22;100748.38;;;8.97;100.00
57050;BME280;42935;50.966;16.992;2023-03-23T04:57:46;100758.33;;;9.02;100.00
57050;BME280;42935;50.966;16.992;2023-03-23T05:01:06;100758.77;;;8.95;100.00
57050;BME280;42935;50.966;16.992;2023-03-23T05:04:31;100757.27;;;8.94;100.00
57050;BME280;42935;50.966;16.992;2023-03-23T05:07:50;100755.07;;;8.95;100.00
57050;BME280;42935;50.966;16.992;2023-03-23T05:11:06;100753.24;;;8.95;100.00
57050;BME280;42935;50.966;16.992;2023-03-23T05:14:33;100741.42;;;8.88;100.00
57050;BME280;42935;50.966;16.992;2023-03-23T05:17:54;100737.71;;;8.85;100.00
57050;BME280;42935;50.966;16.992;2023-03-23T05:21:15;100738.55;;;8.89;100.00
57050;BME280;42935;50.966;16.992;2023-03-23T05:24:38;100747.60;;;9.03;100.00
57050;BME280;42935;50.966;16.992;2023-03-23T05:28:04;100747.77;;;9.11;100.00
57050;BME280;42935;50.966;16.992;2023-03-23T05:31:24;100734.23;;;9.11;100.00
57050;BME280;42935;50.966;16.992;2023-03-23T05:34:40;100739.87;;;9.23;100.00
57050;BME280;42935;50.966;16.992;2023-03-23T05:38:01;100738.97;;;9.32;100.00
57050;BME280;42935;50.966;16.992;2023-03-23T05:41:27;100724.59;;;9.18;100.00
57050;BME280;42935;50.966;16.992;2023-03-23T05:44:47;100740.73;;;9.19;100.00
57050;BME280;42935;50.966;16.992;2023-03-23T05:48:08;100742.27;;;9.16;100.00
57050;BME280;42935;50.966;16.992;2023-03-23T05:51:22;100738.48;;;9.10;100.00
57050;BME280;42935;50.966;16.992;2023-03-23T05:54:43;100735.52;;;9.05;100.00
57050;BME280;42935;50.966;16.992;2023-03-23T05:58:06;100717.24;;;9.04;100.00
57050;BME280;42935;50.966;16.992;2023-03-23T06:01:55;100730.70;;;9.22;100.00
57050;BME280;42935;50.966;16.992;2023-03-23T06:05:44;100729.41;;;9.27;100.00
57050;BME280;42935;50.966;16.992;2023-03-23T06:09:00;100727.56;;;9.31;100.00
57050;BME280;42935;50.966;16.992;2023-03-23T06:12:17;100737.19;;;9.39;100.00
57050;BME280;42935;50.966;16.992;2023-03-23T06:15:39;100731.08;;;9.52;100.00
57050;BME280;42935;50.966;16.992;2023-03-23T06:18:59;100730.66;;;9.71;100.00
57050;BME280;42935;50.966;16.992;2023-03-23T06:22:20;100719.30;;;9.79;100.00
57050;BME280;42935;50.966;16.992;2023-03-23T06:25:42;100736.45;;;10.08;100.00
57050;BME280;42935;50.966;16.992;2023-03-23T06:29:07;100737.44;;;10.16;100.00
57050;BME280;42935;50.966;16.992;2023-03-23T06:32:31;100734.95;;;10.25;100.00
57050;BME280;42935;50.966;16.992;2023-03-23T06:35:52;100733.02;;;10.31;100.00
57050;BME280;42935;50.966;16.992;2023-03-23T06:39:15;100734.52;;;10.45;100.00
57050;BME280;42935;50.966;16.992;2023-03-23T06:42:30;100731.15;;;10.60;100.00
57050;BME280;42935;50.966;16.992;2023-03-23T06:45:52;100729.32;;;10.72;100.00
57050;BME280;42935;50.966;16.992;2023-03-23T06:49:12;100727.16;;;10.78;100.00
57050;BME280;42935;50.966;16.992;2023-03-23T06:52:39;100731.77;;;11.06;100.00
57050;BME280;42935;50.966;16.992;2023-03-23T06:56:00;100732.67;;;11.27;100.00
57050;BME280;42935;50.966;16.992;2023-03-23T06:59:21;100726.88;;;11.48;100.00
57050;BME280;42935;50.966;16.992;2023-03-23T07:02:43;100718.63;;;11.67;100.00
57050;BME280;42935;50.966;16.992;2023-03-23T07:06:00;100727.18;;;11.89;100.00
57050;BME280;42935;50.966;16.992;2023-03-23T07:09:21;100728.44;;;11.91;100.00
57050;BME280;42935;50.966;16.992;2023-03-23T07:12:42;100709.20;;;12.03;100.00
57050;BME280;42935;50.966;16.992;2023-03-23T07:16:07;100703.42;;;12.33;99.00
57050;BME280;42935;50.966;16.992;2023-03-23T07:19:25;100692.80;;;12.62;99.59
57050;BME280;42935;50.966;16.992;2023-03-23T07:22:50;100713.30;;;13.00;92.43
57050;BME280;42935;50.966;16.992;2023-03-23T07:26:10;100713.70;;;13.25;91.23
57050;BME280;42935;50.966;16.992;2023-03-23T07:29:26;100699.95;;;13.23;83.51
57050;BME280;42935;50.966;16.992;2023-03-23T07:32:44;100717.88;;;13.29;83.20
57050;BME280;42935;50.966;16.992;2023-03-23T07:36:07;100716.69;;;13.37;84.03
57050;BME280;42935;50.966;16.992;2023-03-23T07:39:27;100715.73;;;13.36;80.66
57050;BME280;42935;50.966;16.992;2023-03-23T07:42:51;100704.44;;;13.35;79.16
57050;BME280;42935;50.966;16.992;2023-03-23T07:46:12;100714.86;;;13.47;79.42
57050;BME280;42935;50.966;16.992;2023-03-23T07:49:29;100712.77;;;13.59;79.60
57050;BME280;42935;50.966;16.992;2023-03-23T07:52:54;100714.45;;;13.83;77.75
57050;BME280;42935;50.966;16.992;2023-03-23T07:56:13;100710.53;;;14.10;77.40
57050;BME280;42935;50.966;16.992;2023-03-23T08:00:06;100709.45;;;14.35;75.60
57050;BME280;42935;50.966;16.992;2023-03-23T08:04:07;100712.71;;;14.26;73.82
57050;BME280;42935;50.966;16.992;2023-03-23T08:07:27;100702.41;;;14.22;75.42
57050;BME280;42935;50.966;16.992;2023-03-23T08:10:51;100714.40;;;14.24;76.71
57050;BME280;42935;50.966;16.992;2023-03-23T08:14:12;100706.77;;;14.25;75.68
57050;BME280;42935;50.966;16.992;2023-03-23T08:17:35;100703.38;;;14.21;73.69
57050;BME280;42935;50.966;16.992;2023-03-23T08:21:28;100699.70;;;14.35;74.66
57050;BME280;42935;50.966;16.992;2023-03-23T08:24:45;100680.74;;;14.65;72.50
57050;BME280;42935;50.966;16.992;2023-03-23T08:28:04;100673.84;;;14.76;73.30
57050;BME280;42935;50.966;16.992;2023-03-23T08:31:24;100666.89;;;14.74;71.46
57050;BME280;42935;50.966;16.992;2023-03-23T08:34:43;100681.79;;;14.98;68.56
57050;BME280;42935;50.966;16.992;2023-03-23T08:37:59;100672.29;;;15.21;68.82
57050;BME280;42935;50.966;16.992;2023-03-23T08:41:17;100675.54;;;14.94;67.53
57050;BME280;42935;50.966;16.992;2023-03-23T08:44:39;100688.48;;;15.07;68.01
57050;BME280;42935;50.966;16.992;2023-03-23T08:47:56;100684.01;;;15.44;69.38
57050;BME280;42935;50.966;16.992;2023-03-23T08:51:47;100698.68;;;15.87;66.99
57050;BME280;42935;50.966;16.992;2023-03-23T08:55:05;100703.85;;;15.87;67.84
57050;BME280;42935;50.966;16.992;2023-03-23T08:58:23;100683.84;;;16.05;66.47
57050;BME280;42935;50.966;16.992;2023-03-23T09:01:39;100695.87;;;16.05;66.79
57050;BME280;42935;50.966;16.992;2023-03-23T09:04:57;100705.70;;;15.65;66.86
57050;BME280;42935;50.966;16.992;2023-03-23T09:08:17;100707.87;;;15.43;66.09
57050;BME280;42935;50.966;16.992;2023-03-23T09:11:38;100720.22;;;15.40;66.81
57050;BME280;42935;50.966;16.992;2023-03-23T09:15:13;100717.59;;;15.31;67.73
57050;BME280;42935;50.966;16.992;2023-03-23T09:18:34;100723.71;;;15.16;65.57
57050;BME280;42935;50.966;16.992;2023-03-23T09:21:54;100700.07;;;15.09;67.08
57050;BME280;42935;50.966;16.992;2023-03-23T09:25:17;100717.20;;;15.38;66.61
57050;BME280;42935;50.966;16.992;2023-03-23T09:28:39;100711.91;;;15.56;64.91
57050;BME280;42935;50.966;16.992;2023-03-23T09:31:59;100703.15;;;15.65;66.13
57050;BME280;42935;50.966;16.992;2023-03-23T09:35:20;100710.00;;;15.83;66.41
57050;BME280;42935;50.966;16.992;2023-03-23T09:38:40;100714.38;;;15.81;63.81
57050;BME280;42935;50.966;16.992;2023-03-23T09:42:18;100703.31;;;16.08;64.19
57050;BME280;42935;50.966;16.992;2023-03-23T09:45:57;100708.55;;;16.10;61.34
57050;BME280;42935;50.966;16.992;2023-03-23T09:52:57;100725.90;;;16.10;61.38
57050;BME280;42935;50.966;16.992;2023-03-23T09:56:49;100716.82;;;16.01;61.47
57050;BME280;42935;50.966;16.992;2023-03-23T10:00:13;100703.41;;;15.94;61.50
57050;BME280;42935;50.966;16.992;2023-03-23T10:03:39;100717.88;;;15.91;61.15
57050;BME280;42935;50.966;16.992;2023-03-23T10:07:11;100705.97;;;15.82;60.83
57050;BME280;42935;50.966;16.992;2023-03-23T10:11:03;100715.83;;;15.90;61.25
57050;BME280;42935;50.966;16.992;2023-03-23T10:14:20;100703.63;;;15.98;62.66
57050;BME280;42935;50.966;16.992;2023-03-23T10:21:17;100701.07;;;17.31;60.47
57050;BME280;42935;50.966;16.992;2023-03-23T10:24:52;100646.34;;;17.34;58.64
57050;BME280;42935;50.966;16.992;2023-03-23T10:28:32;100691.48;;;17.32;58.40
57050;BME280;42935;50.966;16.992;2023-03-23T10:35:24;100711.14;;;17.07;58.45
57050;BME280;42935;50.966;16.992;2023-03-23T10:38:49;100646.05;;;16.48;58.14
57050;BME280;42935;50.966;16.992;2023-03-23T10:42:09;100699.84;;;16.76;57.86
57050;BME280;42935;50.966;16.992;2023-03-23T10:45:31;100709.83;;;16.78;58.03
57050;BME280;42935;50.966;16.992;2023-03-23T10:48:54;100716.20;;;16.66;57.56
57050;BME280;42935;50.966;16.992;2023-03-23T10:55:44;100710.00;;;16.58;58.63
57050;BME280;42935;50.966;16.992;2023-03-23T11:02:39;100711.50;;;16.75;57.47
57050;BME280;42935;50.966;16.992;2023-03-23T11:06:03;100717.07;;;16.74;56.75
57050;BME280;42935;50.966;16.992;2023-03-23T11:12:58;100718.53;;;16.91;56.07
57050;BME280;42935;50.966;16.992;2023-03-23T11:16:34;100715.17;;;17.05;57.23
57050;BME280;42935;50.966;16.992;2023-03-23T11:20:21;100682.72;;;16.90;56.66
57050;BME280;42935;50.966;16.992;2023-03-23T11:23:41;100729.09;;;16.98;56.38
57050;BME280;42935;50.966;16.992;2023-03-23T11:27:02;100723.48;;;16.79;57.31
57050;BME280;42935;50.966;16.992;2023-03-23T11:30:30;100724.39;;;16.73;57.56
57050;BME280;42935;50.966;16.992;2023-03-23T11:37:28;100723.20;;;16.75;57.25
57050;BME280;42935;50.966;16.992;2023-03-23T11:40:51;100729.55;;;16.75;57.43
57050;BME280;42935;50.966;16.992;2023-03-23T11:44:15;100718.37;;;16.58;57.20
57050;BME280;42935;50.966;16.992;2023-03-23T11:47:45;100738.98;;;16.64;57.04
57050;BME280;42935;50.966;16.992;2023-03-23T11:51:12;100726.89;;;16.53;57.57
57050;BME280;42935;50.966;16.992;2023-03-23T11:54:37;100732.15;;;16.52;57.92
57050;BME280;42935;50.966;16.992;2023-03-23T11:58:01;100728.63;;;16.39;57.75
57050;BME280;42935;50.966;16.992;2023-03-23T12:08:34;100729.31;;;16.21;59.00
57050;BME280;42935;50.966;16.992;2023-03-23T12:12:04;100736.95;;;16.29;58.97
57050;BME280;42935;50.966;16.992;2023-03-23T12:22:38;100734.87;;;16.20;60.02
57050;BME280;42935;50.966;16.992;2023-03-23T12:33:17;100733.74;;;16.06;60.65
57050;BME280;42935;50.966;16.992;2023-03-23T12:40:19;100715.48;;;16.00;60.61
57050;BME280;42935;50.966;16.992;2023-03-23T12:47:54;100728.59;;;16.17;60.10
57050;BME280;42935;50.966;16.992;2023-03-23T12:58:24;100722.74;;;16.14;61.26
57050;BME280;42935;50.966;16.992;2023-03-23T13:01:51;100707.37;;;16.02;63.18
57050;BME280;42935;50.966;16.992;2023-03-23T13:12:12;100695.95;;;16.05;62.63
57050;BME280;42935;50.966;16.992;2023-03-23T13:19:21;100709.62;;;16.01;62.50
57050;BME280;42935;50.966;16.992;2023-03-23T13:26:16;100714.26;;;16.05;62.82
57050;BME280;42935;50.966;16.992;2023-03-23T13:29:45;100721.27;;;16.22;63.12
57050;BME280;42935;50.966;16.992;2023-03-23T13:33:12;100719.59;;;16.23;61.72
57050;BME280;42935;50.966;16.992;2023-03-23T13:36:39;100715.95;;;16.29;61.90
57050;BME280;42935;50.966;16.992;2023-03-23T13:43:34;100704.54;;;16.25;61.15
57050;BME280;42935;50.966;16.992;2023-03-23T13:50:27;100710.27;;;16.33;62.17
57050;BME280;42935;50.966;16.992;2023-03-23T13:53:47;100717.23;;;16.29;62.66
57050;BME280;42935;50.966;16.992;2023-03-23T14:01:16;100720.58;;;16.21;62.67
57050;BME280;42935;50.966;16.992;2023-03-23T14:04:36;100717.39;;;16.14;62.62
57050;BME280;42935;50.966;16.992;2023-03-23T14:10:06;100712.17;;;15.94;64.33
57050;BME280;42935;50.966;16.992;2023-03-23T14:14:04;100717.20;;;16.00;64.74
57050;BME280;42935;50.966;16.992;2023-03-23T14:17:25;100712.59;;;16.00;65.88
57050;BME280;42935;50.966;16.992;2023-03-23T14:20:51;100706.00;;;16.05;64.91
57050;BME280;42935;50.966;16.992;2023-03-23T14:24:19;100701.70;;;16.07;64.58
57050;BME280;42935;50.966;16.992;2023-03-23T14:27:41;100713.29;;;16.17;64.65
57050;BME280;42935;50.966;16.992;2023-03-23T14:31:00;100708.36;;;16.17;63.83
57050;BME280;42935;50.966;16.992;2023-03-23T14:34:20;100714.27;;;16.22;63.86
57050;BME280;42935;50.966;16.992;2023-03-23T14:37:41;100704.10;;;16.25;64.18
57050;BME280;42935;50.966;16.992;2023-03-23T14:41:05;100690.84;;;16.23;63.29
57050;BME280;42935;50.966;16.992;2023-03-23T14:44:37;100696.34;;;16.25;65.11
57050;BME280;42935;50.966;16.992;2023-03-23T14:48:00;100697.04;;;16.13;65.12
57050;BME280;42935;50.966;16.992;2023-03-23T14:51:23;100712.26;;;16.10;64.77
57050;BME280;42935;50.966;16.992;2023-03-23T14:54:42;100714.28;;;15.98;66.10
57050;BME280;42935;50.966;16.992;2023-03-23T14:58:07;100715.51;;;15.88;66.37
57050;BME280;42935;50.966;16.992;2023-03-23T15:01:32;100706.65;;;15.76;67.26
57050;BME280;42935;50.966;16.992;2023-03-23T15:04:59;100710.95;;;15.66;68.27
57050;BME280;42935;50.966;16.992;2023-03-23T15:08:25;100709.49;;;15.57;70.04
57050;BME280;42935;50.966;16.992;2023-03-23T15:12:00;100722.88;;;15.58;71.73
57050;BME280;42935;50.966;16.992;2023-03-23T15:15:28;100703.46;;;15.42;73.37
57050;BME280;42935;50.966;16.992;2023-03-23T15:22:25;100714.66;;;15.46;75.57
57050;BME280;42935;50.966;16.992;2023-03-23T15:25:53;100701.80;;;15.41;75.53
57050;BME280;42935;50.966;16.992;2023-03-23T15:29:17;100691.46;;;15.30;74.23
57050;BME280;42935;50.966;16.992;2023-03-23T15:32:42;100685.05;;;15.42;73.18
57050;BME280;42935;50.966;16.992;2023-03-23T15:36:19;100676.61;;;15.43;73.77
57050;BME280;42935;50.966;16.992;2023-03-23T15:39:41;100666.95;;;15.82;73.65
57050;BME280;42935;50.966;16.992;2023-03-23T15:43:16;100666.05;;;15.98;72.28
57050;BME280;42935;50.966;16.992;2023-03-23T15:46:51;100663.16;;;15.73;72.85
57050;BME280;42935;50.966;16.992;2023-03-23T15:50:19;100677.73;;;15.65;73.88
57050;BME280;42935;50.966;16.992;2023-03-23T15:53:38;100678.27;;;15.62;73.77
57050;BME280;42935;50.966;16.992;2023-03-23T15:56:59;100643.98;;;15.31;73.72
57050;BME280;42935;50.966;16.992;2023-03-23T16:00:22;100682.29;;;15.66;73.55
57050;BME280;42935;50.966;16.992;2023-03-23T16:03:49;100682.96;;;15.58;73.64
57050;BME280;42935;50.966;16.992;2023-03-23T16:07:13;100676.14;;;15.39;73.37
57050;BME280;42935;50.966;16.992;2023-03-23T16:10:32;100683.05;;;15.43;73.68
57050;BME280;42935;50.966;16.992;2023-03-23T16:13:57;100691.55;;;15.46;74.29
57050;BME280;42935;50.966;16.992;2023-03-23T16:17:19;100692.15;;;15.32;75.08
57050;BME280;42935;50.966;16.992;2023-03-23T16:20:36;100696.41;;;15.21;75.93
57050;BME280;42935;50.966;16.992;2023-03-23T16:24:26;100689.38;;;14.98;76.42
57050;BME280;42935;50.966;16.992;2023-03-23T16:27:46;100704.38;;;14.92;77.15
57050;BME280;42935;50.966;16.992;2023-03-23T16:31:05;100710.59;;;14.89;76.84
57050;BME280;42935;50.966;16.992;2023-03-23T16:34:22;100712.20;;;14.77;77.39
57050;BME280;42935;50.966;16.992;2023-03-23T16:37:49;100702.80;;;14.60;77.32
57050;BME280;42935;50.966;16.992;2023-03-23T16:41:07;100711.82;;;14.44;79.33
57050;BME280;42935;50.966;16.992;2023-03-23T16:44:36;100706.05;;;14.53;77.30
57050;BME280;42935;50.966;16.992;2023-03-23T16:47:59;100714.16;;;14.63;76.21
57050;BME280;42935;50.966;16.992;2023-03-23T16:51:50;100716.27;;;14.55;76.37
57050;BME280;42935;50.966;16.992;2023-03-23T16:55:11;100718.39;;;14.50;76.36
57050;BME280;42935;50.966;16.992;2023-03-23T16:59:01;100725.86;;;14.55;75.67
57050;BME280;42935;50.966;16.992;2023-03-23T17:02:19;100729.05;;;14.60;74.53
57050;BME280;42935;50.966;16.992;2023-03-23T17:05:48;100724.53;;;14.75;72.77
57050;BME280;42935;50.966;16.992;2023-03-23T17:09:43;100692.60;;;14.36;73.96
57050;BME280;42935;50.966;16.992;2023-03-23T17:13:04;100725.69;;;14.55;73.85
57050;BME280;42935;50.966;16.992;2023-03-23T17:16:24;100730.24;;;14.43;74.75
57050;BME280;42935;50.966;16.992;2023-03-23T17:19:43;100730.30;;;14.21;76.93
57050;BME280;42935;50.966;16.992;2023-03-23T17:23:05;100752.37;;;14.27;78.01
57050;BME280;42935;50.966;16.992;2023-03-23T17:26:25;100741.35;;;14.12;79.54
57050;BME280;42935;50.966;16.992;2023-03-23T17:29:46;100757.01;;;14.05;82.58
57050;BME280;42935;50.966;16.992;2023-03-23T17:33:05;100763.48;;;13.90;83.94
57050;BME280;42935;50.966;16.992;2023-03-23T17:36:21;100717.24;;;13.60;84.02
57050;BME280;42935;50.966;16.992;2023-03-23T17:39:42;100756.18;;;13.83;84.20
57050;BME280;42935;50.966;16.992;2023-03-23T17:43:02;100764.69;;;13.84;84.83
57050;BME280;42935;50.966;16.992;2023-03-23T17:46:20;100763.34;;;13.77;85.51
57050;BME280;42935;50.966;16.992;2023-03-23T17:49:38;100754.80;;;13.78;84.74
57050;BME280;42935;50.966;16.992;2023-03-23T17:53:02;100740.90;;;13.59;84.96
57050;BME280;42935;50.966;16.992;2023-03-23T17:56:23;100760.85;;;13.70;86.94
57050;BME280;42935;50.966;16.992;2023-03-23T17:59:44;100763.14;;;13.71;88.06
57050;BME280;42935;50.966;16.992;2023-03-23T18:03:11;100752.42;;;13.54;88.23
57050;BME280;42935;50.966;16.992;2023-03-23T18:06:32;100769.49;;;13.53;89.04
57050;BME280;42935;50.966;16.992;2023-03-23T18:09:59;100772.52;;;13.51;89.60
57050;BME280;42935;50.966;16.992;2023-03-23T18:13:16;100775.83;;;13.55;89.28
57050;BME280;42935;50.966;16.992;2023-03-23T18:16:35;100793.02;;;13.31;91.95
57050;BME280;42935;50.966;16.992;2023-03-23T18:19:56;100786.92;;;13.28;92.65
57050;BME280;42935;50.966;16.992;2023-03-23T18:23:20;100775.05;;;13.38;91.13
57050;BME280;42935;50.966;16.992;2023-03-23T18:26:38;100772.87;;;13.38;90.95
57050;BME280;42935;50.966;16.992;2023-03-23T18:29:56;100769.96;;;13.32;91.76
57050;BME280;42935;50.966;16.992;2023-03-23T18:33:25;100770.66;;;13.32;92.06
57050;BME280;42935;50.966;16.992;2023-03-23T18:36:49;100788.82;;;13.24;93.24
57050;BME280;42935;50.966;16.992;2023-03-23T18:40:10;100784.77;;;13.16;93.79
57050;BME280;42935;50.966;16.992;2023-03-23T18:43:36;100792.16;;;13.11;93.08
57050;BME280;42935;50.966;16.992;2023-03-23T18:47:03;100804.06;;;13.12;93.70
57050;BME280;42935;50.966;16.992;2023-03-23T18:50:24;100814.40;;;13.03;94.15
57050;BME280;42935;50.966;16.992;2023-03-23T18:53:45;100802.85;;;12.92;94.99
57050;BME280;42935;50.966;16.992;2023-03-23T18:57:43;100811.09;;;13.02;93.88
57050;BME280;42935;50.966;16.992;2023-03-23T19:01:12;100805.75;;;13.07;91.64
57050;BME280;42935;50.966;16.992;2023-03-23T19:04:32;100813.17;;;13.08;93.09
57050;BME280;42935;50.966;16.992;2023-03-23T19:07:52;100824.38;;;13.05;94.02
57050;BME280;42935;50.966;16.992;2023-03-23T19:11:14;100806.91;;;12.92;93.58
57050;BME280;42935;50.966;16.992;2023-03-23T19:14:35;100809.44;;;13.01;91.81
57050;BME280;42935;50.966;16.992;2023-03-23T19:17:59;100806.05;;;13.09;91.16
57050;BME280;42935;50.966;16.992;2023-03-23T19:21:20;100804.72;;;13.09;92.10
57050;BME280;42935;50.966;16.992;2023-03-23T19:24:45;100790.66;;;13.01;92.52
57050;BME280;42935;50.966;16.992;2023-03-23T19:28:13;100802.00;;;13.02;93.67
57050;BME280;42935;50.966;16.992;2023-03-23T19:31:34;100778.63;;;12.89;93.27
57050;BME280;42935;50.966;16.992;2023-03-23T19:34:54;100799.14;;;12.97;94.08
57050;BME280;42935;50.966;16.992;2023-03-23T19:38:21;100812.73;;;12.96;95.10
57050;BME280;42935;50.966;16.992;2023-03-23T19:41:39;100808.67;;;12.82;96.39